Time;durP1;ratioP1;P1;durP2;ratioP2;P2;SDS_P1;SDS_P2;PMS_P1;PMS_P2;Temp;Humidity;BMP_temperature;BMP_pressure;BME280_temperature;BME280_humidity;BME280_pressure;Samples;Min_cycle;Max_cycle;Signal;HPM_P1;HPM_P2
2022/02/24 00:00:01;;;;;;;20.10;10.57;;;;;;;-1.27;84.44;96482.45;1753712;81;21022;-67
2022/02/24 00:02:29;;;;;;;17.90;9.60;;;;;;;-1.22;84.93;96484.82;1753117;82;21488;-67
2022/02/24 00:04:56;;;;;;;18.17;9.10;;;;;;;-1.10;85.41;96496.97;1753610;81;21011;-67
2022/02/24 00:07:22;;;;;;;16.43;9.27;;;;;;;-1.05;85.14;96495.00;1753645;82;21014;-67
2022/02/24 00:09:49;;;;;;;17.90;9.37;;;;;;;-1.07;84.64;96491.03;1753514;82;21027;-67
2022/02/24 00:12:16;;;;;;;12.97;7.20;;;;;;;-1.02;85.08;96492.52;1753555;82;21034;-67
2022/02/24 00:14:43;;;;;;;14.27;8.10;;;;;;;-0.94;85.32;96493.28;1753542;82;21070;-67
2022/02/24 00:17:09;;;;;;;12.47;7.47;;;;;;;-0.95;84.79;96494.13;1753570;82;20987;-67
2022/02/24 00:19:36;;;;;;;14.63;7.30;;;;;;;-0.88;84.77;96496.14;1753596;81;21066;-67
2022/02/24 00:22:03;;;;;;;12.13;8.07;;;;;;;-0.85;84.74;96491.91;1753348;82;21022;-68
2022/02/24 00:24:31;;;;;;;25.30;15.20;;;;;;;-0.89;84.68;96498.66;1753580;82;21086;-67
2022/02/24 00:26:57;;;;;;;21.47;12.23;;;;;;;-0.96;84.31;96496.25;1753647;82;21070;-67
2022/02/24 00:29:24;;;;;;;18.60;11.20;;;;;;;-1.03;83.79;96491.64;1753636;82;21027;-67
2022/02/24 00:31:50;;;;;;;24.07;14.37;;;;;;;-1.06;83.92;96490.62;1753533;82;21023;-67
2022/02/24 00:34:22;;;;;;;22.87;15.23;;;;;;;-1.13;84.29;96494.69;1753539;82;21034;-67
2022/02/24 00:36:45;;;;;;;27.57;16.87;;;;;;;-1.11;84.20;96496.90;1753044;82;21046;-67
2022/02/24 00:39:12;;;;;;;26.53;15.27;;;;;;;-1.17;83.87;96492.36;1753222;82;21027;-67
2022/02/24 00:41:40;;;;;;;13.90;7.97;;;;;;;-1.14;84.14;96489.89;1753726;82;21014;-67
2022/02/24 00:44:06;;;;;;;14.63;7.73;;;;;;;-1.19;83.80;96500.47;1753591;81;20992;-67
2022/02/24 00:46:33;;;;;;;23.20;15.00;;;;;;;-1.22;84.51;96500.35;1753151;82;21043;-67
2022/02/24 00:48:59;;;;;;;27.33;14.87;;;;;;;-1.23;84.58;96495.13;1753420;82;20999;-67
2022/02/24 00:51:26;;;;;;;16.47;10.70;;;;;;;-1.29;84.35;96498.75;1753100;82;21081;-68
2022/02/24 00:53:53;;;;;;;8.27;5.60;;;;;;;-1.32;84.33;96487.44;1753302;82;21049;-67
2022/02/24 00:56:19;;;;;;;9.33;4.60;;;;;;;-1.24;84.71;96489.46;1753406;82;21027;-67
2022/02/24 00:58:46;;;;;;;23.03;11.70;;;;;;;-1.16;84.82;96492.86;1753005;82;21038;-67
2022/02/24 01:01:13;;;;;;;14.47;8.40;;;;;;;-1.19;84.28;96485.35;1725897;82;20987;-67
2022/02/24 01:03:40;;;;;;;8.40;4.10;;;;;;;-1.28;84.04;96478.53;1753553;82;20967;-68
2022/02/24 01:06:07;;;;;;;10.10;4.73;;;;;;;-1.19;84.88;96480.17;1753346;82;21030;-67
2022/02/24 01:08:33;;;;;;;7.93;4.47;;;;;;;-1.19;84.10;96483.64;1753029;82;21540;-67
2022/02/24 01:11:00;;;;;;;9.13;4.90;;;;;;;-1.22;84.32;96486.53;1753582;82;21532;-67
2022/02/24 01:13:26;;;;;;;8.87;5.13;;;;;;;-1.20;84.65;96476.70;1752965;82;21146;-67
2022/02/24 01:15:53;;;;;;;12.87;7.40;;;;;;;-1.22;83.91;96474.46;1753510;82;21003;-67
2022/02/24 01:18:20;;;;;;;14.33;9.07;;;;;;;-1.31;83.54;96480.16;1753622;82;21066;-67
2022/02/24 01:20:47;;;;;;;14.43;9.80;;;;;;;-1.35;83.66;96473.08;1753044;82;21034;-67
2022/02/24 01:23:13;;;;;;;17.17;10.47;;;;;;;-1.46;83.21;96474.35;1753114;82;20983;-67
2022/02/24 01:25:41;;;;;;;18.40;11.10;;;;;;;-1.59;82.98;96472.95;1753380;82;21497;-67
2022/02/24 01:28:07;;;;;;;16.03;8.77;;;;;;;-1.65;83.17;96479.16;1753091;82;21111;-67
2022/02/24 01:30:34;;;;;;;7.27;3.93;;;;;;;-1.65;83.52;96480.86;1753520;81;21051;-67
2022/02/24 01:33:00;;;;;;;8.13;3.30;;;;;;;-1.76;83.51;96472.23;1753487;82;21035;-67
2022/02/24 01:35:27;;;;;;;7.03;3.43;;;;;;;-1.76;83.43;96473.53;1753303;82;21055;-67
2022/02/24 01:37:54;;;;;;;7.27;2.93;;;;;;;-1.75;83.57;96479.58;1753426;82;21487;-67
2022/02/24 01:40:21;;;;;;;6.83;3.80;;;;;;;-1.79;83.69;96478.96;1753458;82;20987;-67
2022/02/24 01:42:47;;;;;;;6.07;4.13;;;;;;;-1.85;83.80;96482.17;1753457;82;21027;-67
2022/02/24 01:45:15;;;;;;;7.00;4.23;;;;;;;-1.87;84.00;96483.81;1753375;82;21026;-67
2022/02/24 01:47:42;;;;;;;10.63;6.53;;;;;;;-1.90;83.99;96481.09;1753338;81;21526;-67
2022/02/24 01:50:12;;;;;;;9.80;5.07;;;;;;;-1.88;84.16;96487.64;1753408;82;21118;-67
2022/02/24 01:52:40;;;;;;;6.63;3.73;;;;;;;-1.80;84.40;96485.84;1753446;82;21579;-67
2022/02/24 01:55:09;;;;;;;6.13;2.67;;;;;;;-1.78;83.98;96479.04;1753249;82;21500;-67
2022/02/24 01:57:35;;;;;;;5.67;2.47;;;;;;;-1.69;83.83;96477.66;1753545;81;21054;-67
2022/02/24 02:00:06;;;;;;;8.03;3.90;;;;;;;-1.68;83.56;96479.45;1753368;82;21030;-67
2022/02/24 02:02:35;;;;;;;7.30;2.80;;;;;;;-1.66;84.16;96473.52;1753494;82;21099;-67
2022/02/24 02:05:04;;;;;;;5.63;2.30;;;;;;;-1.60;84.00;96477.64;1753417;82;21033;-67
2022/02/24 02:07:33;;;;;;;6.60;2.70;;;;;;;-1.49;83.97;96476.79;1753416;82;21010;-67
2022/02/24 02:10:00;;;;;;;6.60;2.67;;;;;;;-1.48;83.91;96476.41;1753202;82;21018;-67
2022/02/24 02:12:27;;;;;;;9.83;4.40;;;;;;;-1.46;84.55;96480.83;1753760;81;21040;-67
2022/02/24 02:14:54;;;;;;;7.10;4.50;;;;;;;-1.39;84.57;96474.17;1753345;82;21091;-68
2022/02/24 02:17:20;;;;;;;8.93;3.80;;;;;;;-1.36;84.19;96480.77;1753331;81;21014;-67
2022/02/24 02:19:47;;;;;;;7.23;3.40;;;;;;;-1.31;83.83;96478.87;1753496;82;20998;-67
2022/02/24 02:22:14;;;;;;;7.10;3.00;;;;;;;-1.24;83.79;96486.87;1753479;81;21023;-67
2022/02/24 02:24:42;;;;;;;9.43;3.93;;;;;;;-1.25;83.83;96479.94;1753041;82;21015;-67
2022/02/24 02:27:09;;;;;;;8.27;4.77;;;;;;;-1.23;84.20;96483.48;1726243;82;21023;-67
2022/02/24 02:29:36;;;;;;;6.30;3.10;;;;;;;-1.24;84.13;96482.98;1752161;81;21078;-68
2022/02/24 02:32:04;;;;;;;5.13;3.47;;;;;;;-1.16;84.22;96486.77;1749939;82;21022;-67
2022/02/24 02:34:33;;;;;;;10.50;4.73;;;;;;;-1.17;84.05;96487.18;1750220;82;21067;-67
2022/02/24 02:37:01;;;;;;;12.07;6.70;;;;;;;-1.17;84.28;96478.12;1750027;82;21521;-67
2022/02/24 02:39:28;;;;;;;9.50;6.10;;;;;;;-1.18;84.09;96482.84;1749827;82;21520;-67
2022/02/24 02:41:55;;;;;;;7.37;3.33;;;;;;;-1.20;83.88;96486.19;1749906;82;21055;-67
2022/02/24 02:44:21;;;;;;;7.77;3.73;;;;;;;-1.16;84.23;96485.47;1750132;82;21023;-67
2022/02/24 02:46:48;;;;;;;10.57;3.80;;;;;;;-1.15;84.11;96487.26;1750286;82;21460;-67
2022/02/24 02:49:15;;;;;;;7.83;3.73;;;;;;;-1.09;84.37;96488.78;1750175;82;21003;-67
2022/02/24 02:51:41;;;;;;;6.83;3.93;;;;;;;-1.01;84.88;96487.80;1750209;82;21015;-67
2022/02/24 02:54:08;;;;;;;8.43;4.33;;;;;;;-0.99;84.69;96486.16;1750171;82;21011;-67
2022/02/24 02:56:35;;;;;;;10.63;5.00;;;;;;;-0.98;84.53;96497.02;1750185;82;21019;-67
2022/02/24 02:59:01;;;;;;;11.23;5.17;;;;;;;-0.98;84.12;96491.84;1749723;82;21035;-67
2022/02/24 03:01:28;;;;;;;7.73;4.80;;;;;;;-1.03;84.43;96502.39;1750472;82;21119;-67
2022/02/24 03:03:55;;;;;;;10.23;4.83;;;;;;;-1.04;84.43;96494.16;1750245;82;21525;-67
2022/02/24 03:06:22;;;;;;;11.23;4.03;;;;;;;-1.02;84.92;96496.41;1750073;82;21046;-67
2022/02/24 03:08:48;;;;;;;9.47;4.50;;;;;;;-0.92;85.03;96501.13;1750135;82;21015;-67
2022/02/24 03:11:15;;;;;;;8.40;4.73;;;;;;;-0.90;84.90;96493.89;1750485;82;21022;-67
2022/02/24 03:13:41;;;;;;;9.27;4.23;;;;;;;-0.89;84.58;96499.53;1750145;82;21035;-67
2022/02/24 03:16:08;;;;;;;9.13;4.67;;;;;;;-0.81;84.98;96500.25;1750477;82;21039;-67
2022/02/24 03:18:34;;;;;;;8.53;5.67;;;;;;;-0.74;85.05;96503.56;1750282;82;21015;-67
2022/02/24 03:21:01;;;;;;;9.67;5.53;;;;;;;-0.70;84.72;96498.98;1750061;82;21449;-67
2022/02/24 03:23:27;;;;;;;9.47;5.53;;;;;;;-0.67;84.57;96498.68;1750232;82;21010;-68
2022/02/24 03:25:55;;;;;;;7.87;5.57;;;;;;;-0.73;84.24;96499.75;1749781;82;21055;-67
2022/02/24 03:28:21;;;;;;;22.23;12.50;;;;;;;-0.67;84.50;96496.51;1749953;82;21019;-67
2022/02/24 03:30:48;;;;;;;28.67;15.63;;;;;;;-0.70;84.38;96498.98;1746405;82;20972;-67
2022/02/24 03:33:16;;;;;;;17.40;8.77;;;;;;;-0.74;84.33;96494.08;1744202;82;21015;-67
2022/02/24 03:35:45;;;;;;;13.90;8.37;;;;;;;-0.78;83.85;96490.00;1744571;82;21011;-67
2022/02/24 03:38:12;;;;;;;22.97;11.53;;;;;;;-0.82;83.79;96491.61;1744700;82;21014;-73
2022/02/24 03:40:39;;;;;;;31.93;15.37;;;;;;;-0.79;84.63;96494.73;1744565;82;21082;-67
2022/02/24 03:43:05;;;;;;;26.00;13.27;;;;;;;-0.78;84.78;96497.39;1744753;82;20996;-67
2022/02/24 03:45:32;;;;;;;27.23;14.90;;;;;;;-0.74;84.70;96494.50;1744389;82;21024;-67
2022/02/24 03:47:59;;;;;;;27.80;13.97;;;;;;;-0.79;84.21;96494.73;1744390;82;21508;-67
2022/02/24 03:50:27;;;;;;;22.27;12.93;;;;;;;-0.84;84.38;96490.66;1744898;82;21031;-67
2022/02/24 03:52:53;;;;;;;27.17;14.90;;;;;;;-0.77;84.65;96496.97;1744714;82;21115;-67
2022/02/24 03:55:20;;;;;;;24.30;14.33;;;;;;;-0.78;84.59;96497.78;1744099;82;21092;-67
2022/02/24 03:57:47;;;;;;;21.90;14.53;;;;;;;-0.76;84.68;96493.13;1744685;82;21565;-67
2022/02/24 04:00:15;;;;;;;33.53;18.23;;;;;;;-0.67;84.51;96500.40;1744556;82;21023;-67
2022/02/24 04:02:43;;;;;;;27.23;14.70;;;;;;;-0.74;83.81;96500.97;1744439;82;21050;-67
2022/02/24 04:05:11;;;;;;;28.17;16.63;;;;;;;-0.74;84.34;96497.09;1744617;82;21003;-67
2022/02/24 04:07:37;;;;;;;27.07;16.93;;;;;;;-0.73;84.43;96503.64;1744862;82;21023;-67
2022/02/24 04:10:06;;;;;;;17.67;10.33;;;;;;;-0.70;84.27;96502.87;1744194;82;21490;-67
2022/02/24 04:12:34;;;;;;;22.87;11.17;;;;;;;-0.72;84.27;96505.81;1744583;82;21073;-68
2022/02/24 04:15:01;;;;;;;22.53;13.93;;;;;;;-0.68;84.92;96499.52;1744602;82;21027;-67
2022/02/24 04:17:29;;;;;;;19.50;12.47;;;;;;;-0.68;84.66;96498.61;1744609;82;21481;-67
2022/02/24 04:19:56;;;;;;;23.40;13.60;;;;;;;-0.64;84.44;96500.51;1744802;82;21019;-66
2022/02/24 04:22:22;;;;;;;23.13;13.83;;;;;;;-0.72;84.33;96507.98;1744431;82;21061;-67
2022/02/24 04:24:49;;;;;;;22.70;13.00;;;;;;;-0.72;84.67;96505.81;1744512;82;21030;-65
2022/02/24 04:27:15;;;;;;;22.90;12.57;;;;;;;-0.65;84.81;96510.42;1744592;82;20999;-66
2022/02/24 04:29:42;;;;;;;21.93;13.67;;;;;;;-0.63;84.56;96510.45;1744551;82;21019;-67
2022/02/24 04:32:08;;;;;;;22.63;12.47;;;;;;;-0.65;84.14;96514.30;1744776;82;21461;-67
2022/02/24 04:34:35;;;;;;;21.87;13.50;;;;;;;-0.66;83.84;96509.92;1744816;82;21056;-68
2022/02/24 04:37:02;;;;;;;31.03;17.10;;;;;;;-0.75;83.88;96522.55;1744765;82;21015;-67
2022/02/24 04:39:28;;;;;;;31.20;17.67;;;;;;;-0.77;84.22;96525.48;1744621;82;21011;-67
2022/02/24 04:41:55;;;;;;;27.90;16.87;;;;;;;-0.81;84.05;96522.28;1744732;82;21042;-68
2022/02/24 04:44:22;;;;;;;22.43;15.03;;;;;;;-0.93;83.31;96527.88;1744607;82;21549;-67
2022/02/24 04:46:48;;;;;;;30.70;17.23;;;;;;;-1.02;83.51;96530.95;1744916;82;21007;-67
2022/02/24 04:49:15;;;;;;;25.97;14.80;;;;;;;-1.09;83.93;96532.81;1744841;82;21034;-67
2022/02/24 04:51:42;;;;;;;34.40;17.73;;;;;;;-1.13;83.49;96541.30;1744505;82;21027;-67
2022/02/24 04:54:08;;;;;;;28.20;16.33;;;;;;;-1.20;83.85;96544.45;1744704;82;21015;-67
2022/02/24 04:56:35;;;;;;;32.07;18.63;;;;;;;-1.17;84.10;96544.57;1744755;82;21062;-67
2022/02/24 04:59:02;;;;;;;31.60;17.80;;;;;;;-1.15;84.79;96542.52;1744409;82;21083;-67
2022/02/24 05:01:28;;;;;;;42.63;22.60;;;;;;;-1.08;84.98;96556.62;1744953;82;21003;-67
2022/02/24 05:03:55;;;;;;;44.13;24.27;;;;;;;-1.10;84.62;96551.36;1744595;82;20992;-67
2022/02/24 05:06:22;;;;;;;45.93;27.70;;;;;;;-1.06;84.66;96554.95;1744469;82;21059;-67
2022/02/24 05:08:49;;;;;;;51.37;27.20;;;;;;;-1.02;84.60;96568.52;1744613;82;21501;-67
2022/02/24 05:11:15;;;;;;;58.27;33.50;;;;;;;-1.06;84.65;96564.02;1744227;82;21023;-67
2022/02/24 05:13:42;;;;;;;44.63;25.93;;;;;;;-0.97;85.08;96560.94;1744794;82;21030;-67
2022/02/24 05:16:08;;;;;;;39.10;23.53;;;;;;;-0.94;84.81;96563.23;1744798;82;21446;-67
2022/02/24 05:18:34;;;;;;;44.77;25.17;;;;;;;-0.96;84.52;96563.98;1744721;82;20999;-67
2022/02/24 05:21:01;;;;;;;30.47;18.97;;;;;;;-0.99;84.69;96567.76;1744982;82;21000;-67
2022/02/24 05:23:28;;;;;;;39.97;22.80;;;;;;;-1.00;84.56;96572.48;1744656;82;21155;-67
2022/02/24 05:25:54;;;;;;;30.93;19.67;;;;;;;-1.05;84.07;96577.46;1744502;82;21014;-67
2022/02/24 05:28:21;;;;;;;32.13;19.70;;;;;;;-1.10;84.62;96581.15;1744838;82;20991;-67
2022/02/24 05:30:48;;;;;;;61.37;29.77;;;;;;;-1.07;85.03;96579.09;1744698;82;21106;-67
2022/02/24 05:33:15;;;;;;;51.00;25.40;;;;;;;-1.06;84.70;96579.55;1744563;82;21453;-67
2022/02/24 05:35:41;;;;;;;41.73;21.40;;;;;;;-1.04;84.85;96583.10;1744511;82;21065;-67
2022/02/24 05:38:08;;;;;;;32.20;16.43;;;;;;;-1.05;85.13;96583.06;1744407;82;21082;-67
2022/02/24 05:40:35;;;;;;;47.90;22.90;;;;;;;-0.96;85.21;96587.30;1744293;82;21019;-67
2022/02/24 05:43:02;;;;;;;54.83;26.43;;;;;;;-0.99;84.81;96584.17;1744965;82;21031;-67
2022/02/24 05:45:28;;;;;;;51.37;24.67;;;;;;;-0.96;85.02;96588.22;1744664;82;21002;-67
2022/02/24 05:47:55;;;;;;;40.60;22.00;;;;;;;-1.01;84.67;96591.41;1744311;82;21465;-67
2022/02/24 05:50:21;;;;;;;42.70;21.63;;;;;;;-1.07;84.46;96589.45;1744775;82;21096;-67
2022/02/24 05:52:48;;;;;;;38.83;22.17;;;;;;;-1.15;84.27;96588.25;1744648;82;21072;-67
2022/02/24 05:55:14;;;;;;;42.27;22.37;;;;;;;-1.15;84.79;96588.25;1744167;82;21103;-67
2022/02/24 05:57:43;;;;;;;46.73;23.50;;;;;;;-1.15;84.52;96593.44;1744815;82;20991;-67
2022/02/24 06:00:12;;;;;;;37.17;20.30;;;;;;;-1.25;84.38;96596.45;1743833;82;21142;-68
2022/02/24 06:02:39;;;;;;;31.97;18.83;;;;;;;-1.28;84.81;96594.63;1744601;82;20968;-67
2022/02/24 06:05:07;;;;;;;38.00;20.17;;;;;;;-1.36;84.30;96589.11;1743335;82;21125;-72
2022/02/24 06:07:33;;;;;;;35.23;19.63;;;;;;;-1.39;84.85;96597.14;1742692;82;21023;-68
2022/02/24 06:10:00;;;;;;;37.50;20.20;;;;;;;-1.43;84.42;96600.02;1743312;82;21564;-70
2022/02/24 06:12:27;;;;;;;36.20;20.27;;;;;;;-1.46;84.83;96593.42;1763011;80;21009;-67
2022/02/24 06:14:53;;;;;;;30.30;17.40;;;;;;;-1.37;85.52;96600.27;1747399;82;21039;-67
2022/02/24 06:17:20;;;;;;;34.57;18.57;;;;;;;-1.37;85.02;96603.27;1747212;81;20971;-68
2022/02/24 06:19:47;;;;;;;33.70;16.27;;;;;;;-1.33;85.37;96600.02;1747119;82;21101;-70
2022/02/24 06:22:13;;;;;;;32.70;17.97;;;;;;;-1.26;85.30;96601.14;1747699;82;21018;-68
2022/02/24 06:24:40;;;;;;;28.73;17.53;;;;;;;-1.20;85.46;96605.30;1747773;82;20998;-67
2022/02/24 06:27:07;;;;;;;32.07;18.20;;;;;;;-1.10;85.50;96605.75;1747864;82;21073;-67
2022/02/24 06:29:33;;;;;;;30.40;19.50;;;;;;;-0.97;85.74;96609.73;1748480;81;21010;-66
2022/02/24 06:32:00;;;;;;;35.97;19.17;;;;;;;-0.96;85.78;96598.58;1757350;82;21091;-65
2022/02/24 06:34:29;;;;;;;33.90;20.10;;;;;;;-0.84;85.90;96599.48;1757688;82;21021;-67
2022/02/24 06:36:55;;;;;;;39.73;21.33;;;;;;;-0.69;85.54;96599.22;1757112;81;20975;-67
2022/02/24 06:39:21;;;;;;;32.73;19.17;;;;;;;-0.65;85.40;96597.24;1757655;82;21496;-66
2022/02/24 06:41:48;;;;;;;34.63;20.40;;;;;;;-0.65;85.18;96599.84;1757175;81;21104;-67
2022/02/24 06:44:15;;;;;;;36.53;20.73;;;;;;;-0.55;85.33;96596.79;1781644;80;21028;-69
2022/02/24 06:46:42;;;;;;;70.63;38.10;;;;;;;-0.44;85.05;96592.90;1749367;82;21072;-68
2022/02/24 06:49:08;;;;;;;68.23;34.07;;;;;;;-0.40;84.63;96604.69;1728473;82;21004;-69
2022/02/24 06:51:35;;;;;;;46.13;26.67;;;;;;;-0.37;84.85;96604.83;1747462;82;21163;-70
2022/02/24 06:54:01;;;;;;;28.03;14.73;;;;;;;-0.23;85.07;96598.07;1747665;82;22241;-67
2022/02/24 06:56:28;;;;;;;53.87;27.17;;;;;;;-0.07;85.16;96591.75;1748374;82;21012;-72
2022/02/24 06:58:55;;;;;;;54.63;31.70;;;;;;;-0.01;84.65;96591.97;1748275;82;21064;-70
2022/02/24 07:01:22;;;;;;;51.47;31.20;;;;;;;0.02;84.91;96593.80;1748158;82;21107;-68
2022/02/24 07:03:48;;;;;;;78.87;44.23;;;;;;;0.14;84.97;96589.08;1747418;82;21096;-67
2022/02/24 07:06:15;;;;;;;86.07;49.50;;;;;;;0.26;84.74;96600.76;1748561;82;21538;-66
2022/02/24 07:08:41;;;;;;;80.83;44.47;;;;;;;0.25;84.28;96600.27;1747987;82;21031;-66
2022/02/24 07:11:08;;;;;;;81.33;49.57;;;;;;;0.33;84.39;96602.34;1749140;82;21009;-66
2022/02/24 07:13:34;;;;;;;80.00;50.97;;;;;;;0.36;83.95;96603.74;1749030;82;21489;-66
2022/02/24 07:16:01;;;;;;;77.23;49.90;;;;;;;0.46;84.14;96604.97;1749251;82;21084;-67
2022/02/24 07:18:27;;;;;;;56.37;35.90;;;;;;;0.54;83.90;96611.73;1749040;82;21024;-71
2022/02/24 07:20:54;;;;;;;57.80;33.67;;;;;;;0.59;83.68;96603.28;1748498;82;21067;-71
2022/02/24 07:23:24;;;;;;;37.43;22.37;;;;;;;0.71;83.79;96600.25;1748508;82;21012;-68
2022/02/24 07:25:59;;;;;;;34.63;18.57;;;;;;;0.72;83.37;96605.02;1740527;82;21014;-68
2022/02/24 07:28:25;;;;;;;40.77;25.10;;;;;;;0.80;83.39;96604.44;1746999;82;21030;-67
2022/02/24 07:30:52;;;;;;;52.97;38.23;;;;;;;0.80;83.28;96608.77;1748660;82;21411;-67
2022/02/24 07:33:19;;;;;;;30.13;18.23;;;;;;;0.85;83.37;96600.30;1757217;81;21105;-69
2022/02/24 07:35:45;;;;;;;36.87;20.83;;;;;;;0.87;82.96;96601.66;1730426;82;21507;-65
2022/02/24 07:38:12;;;;;;;25.97;15.40;;;;;;;0.89;83.11;96598.70;1758911;81;21053;-68
2022/02/24 07:40:38;;;;;;;21.27;14.07;;;;;;;0.90;83.33;96600.46;1757969;82;21089;-69
2022/02/24 07:43:06;;;;;;;24.07;14.80;;;;;;;1.00;83.76;96605.56;1757437;82;21011;-66
2022/02/24 07:45:33;;;;;;;27.17;15.47;;;;;;;1.10;83.73;96595.07;1757976;81;21140;-70
2022/02/24 07:47:59;;;;;;;31.93;16.07;;;;;;;1.09;82.92;96598.09;1758496;81;21586;-68
2022/02/24 07:50:26;;;;;;;27.10;16.43;;;;;;;1.13;83.27;96599.06;1757991;81;21407;-67
2022/02/24 07:52:53;;;;;;;27.50;17.40;;;;;;;1.25;83.63;96599.48;1758830;81;21010;-69
2022/02/24 07:55:19;;;;;;;32.73;19.07;;;;;;;1.30;82.97;96590.12;1757566;81;21352;-70
2022/02/24 07:57:46;;;;;;;39.90;20.00;;;;;;;1.44;82.79;96586.27;1757590;81;21006;-70
2022/02/24 08:00:14;;;;;;;29.97;18.53;;;;;;;1.53;82.56;96588.69;1757649;81;21069;-73
2022/02/24 08:02:42;;;;;;;32.50;16.93;;;;;;;1.56;82.41;96584.88;1757586;81;21528;-71
2022/02/24 08:05:11;;;;;;;27.37;15.90;;;;;;;1.63;82.36;96582.52;1757733;81;21100;-72
2022/02/24 08:07:38;;;;;;;26.33;18.23;;;;;;;1.74;81.89;96584.18;1757403;81;21531;-67
2022/02/24 08:10:07;;;;;;;31.20;17.40;;;;;;;1.77;81.83;96571.69;1757608;81;21555;-67
2022/02/24 08:12:39;;;;;;;29.37;17.87;;;;;;;1.93;82.27;96574.78;1757968;81;20997;-67
2022/02/24 08:15:15;;;;;;;30.10;16.77;;;;;;;2.10;81.53;96580.50;1757785;81;21026;-70
2022/02/24 08:17:46;;;;;;;25.73;15.97;;;;;;;2.10;81.53;96580.50;1758312;81;21030;-69
2022/02/24 08:20:14;;;;;;;24.30;12.90;;;;;;;2.11;80.91;96574.88;1759005;81;21542;-65
2022/02/24 08:22:48;;;;;;;22.53;14.67;;;;;;;2.07;80.49;96570.01;1757451;82;22197;-66
2022/02/24 08:25:18;;;;;;;23.77;14.43;;;;;;;2.22;81.32;96567.37;1758715;81;21480;-67
2022/02/24 08:27:47;;;;;;;22.90;14.67;;;;;;;2.31;81.19;96568.52;1758522;81;21025;-67
2022/02/24 08:30:17;;;;;;;20.90;12.33;;;;;;;2.44;80.68;96564.55;1758871;81;21010;-66
2022/02/24 08:32:48;;;;;;;21.73;13.20;;;;;;;2.55;80.59;96564.88;1749512;81;21046;-66
2022/02/24 08:35:17;;;;;;;24.60;13.77;;;;;;;2.72;81.29;96559.70;1747403;81;21042;-67
2022/02/24 08:37:45;;;;;;;23.17;13.37;;;;;;;2.86;81.32;96559.19;1728688;81;20974;-67
2022/02/24 08:40:13;;;;;;;31.97;16.50;;;;;;;2.99;81.02;96554.75;1779002;81;21080;-73
2022/02/24 08:42:40;;;;;;;26.43;14.10;;;;;;;3.12;80.87;96552.03;1778387;81;21628;-67
2022/02/24 08:45:09;;;;;;;20.43;13.50;;;;;;;3.25;80.66;96555.41;1772926;80;21050;-68
2022/02/24 08:47:36;;;;;;;23.47;15.03;;;;;;;3.37;79.83;96551.80;1768485;80;21019;-75
2022/02/24 08:50:05;;;;;;;21.57;13.10;;;;;;;3.52;79.86;96551.30;1799885;79;21058;-70
2022/02/24 08:52:31;;;;;;;16.63;9.87;;;;;;;3.69;80.03;96547.36;1768672;81;20999;-73
2022/02/24 08:54:58;;;;;;;15.23;9.10;;;;;;;3.84;79.71;96544.66;1767907;81;21583;-73
2022/02/24 08:57:25;;;;;;;14.53;6.77;;;;;;;3.93;76.80;96543.56;1767986;81;20991;-70
2022/02/24 08:59:51;;;;;;;10.83;6.03;;;;;;;4.06;76.69;96541.67;1768258;81;21501;-68
2022/02/24 09:02:19;;;;;;;13.37;6.10;;;;;;;4.16;73.76;96540.14;1768143;81;21032;-70
2022/02/24 09:04:45;;;;;;;12.93;5.97;;;;;;;4.26;72.36;96536.88;1767742;81;21081;-69
2022/02/24 09:07:12;;;;;;;5.73;3.10;;;;;;;4.38;70.17;96540.14;1768201;81;20976;-70
2022/02/24 09:09:38;;;;;;;12.80;4.20;;;;;;;4.43;65.90;96539.81;1767927;81;21473;-70
2022/02/24 09:12:06;;;;;;;9.23;3.87;;;;;;;4.50;64.25;96535.60;1768685;81;21070;-69
2022/02/24 09:14:32;;;;;;;11.53;3.60;;;;;;;4.51;62.74;96538.26;1768178;81;21015;-76
2022/02/24 09:16:59;;;;;;;6.67;3.30;;;;;;;4.59;63.42;96535.80;1780386;80;21076;-68
2022/02/24 09:19:25;;;;;;;12.97;4.00;;;;;;;4.75;64.95;96529.99;1781408;80;21566;-72
2022/02/24 09:21:53;;;;;;;9.10;3.47;;;;;;;4.94;63.08;96522.52;1781206;80;21066;-68
2022/02/24 09:24:20;;;;;;;10.10;3.53;;;;;;;5.10;61.00;96530.20;1780764;80;21488;-72
2022/02/24 09:26:47;;;;;;;11.20;4.10;;;;;;;5.19;62.55;96523.80;1781637;80;21053;-69
2022/02/24 09:29:14;;;;;;;9.77;3.00;;;;;;;5.31;59.95;96524.01;1781808;80;21449;-72
2022/02/24 09:31:42;;;;;;;7.80;3.40;;;;;;;5.20;55.41;96526.45;1783364;80;21065;-71
2022/02/24 09:34:09;;;;;;;15.47;4.53;;;;;;;4.88;57.78;96538.95;1789648;80;21488;-70
2022/02/24 09:36:35;;;;;;;6.60;2.33;;;;;;;4.63;58.07;96536.30;1788611;80;22284;-71
2022/02/24 09:39:03;;;;;;;6.30;2.50;;;;;;;4.45;57.05;96529.41;1788699;80;21053;-70
2022/02/24 09:41:29;;;;;;;7.60;2.80;;;;;;;4.26;56.32;96529.47;1789502;80;21074;-71
2022/02/24 09:43:56;;;;;;;5.40;2.20;;;;;;;4.15;57.13;96524.00;1790110;80;20967;-66
2022/02/24 09:46:23;;;;;;;10.10;3.30;;;;;;;4.08;56.24;96523.00;1790182;80;20998;-67
2022/02/24 09:48:50;;;;;;;10.87;2.83;;;;;;;4.18;58.63;96518.83;1789931;80;21093;-68
2022/02/24 09:51:19;;;;;;;6.63;2.13;;;;;;;4.36;58.20;96520.97;1790284;80;21013;-69
2022/02/24 09:53:48;;;;;;;5.93;1.50;;;;;;;4.69;58.98;96510.72;1789975;80;21025;-70
2022/02/24 09:56:22;;;;;;;7.23;2.17;;;;;;;4.89;58.02;96515.89;1789281;80;21081;-70
2022/02/24 09:58:49;;;;;;;;;;;;;;;4.94;57.57;96514.67;1791453;80;21092;-71
2022/02/24 10:01:17;;;;;;;5.97;2.00;;;;;;;4.99;54.47;96503.43;1788651;80;20468;-69
2022/02/24 10:03:48;;;;;;;5.53;1.60;;;;;;;4.97;54.58;96502.95;1789283;80;21006;-72
2022/02/24 10:06:16;;;;;;;7.13;2.50;;;;;;;4.90;53.64;96506.30;1753293;80;21439;-72
2022/02/24 10:08:46;;;;;;;8.20;3.40;;;;;;;4.85;55.21;96503.59;1722040;83;21025;-68
2022/02/24 10:11:22;;;;;;;5.50;2.53;;;;;;;4.80;56.17;96497.84;1739905;82;21476;-69
2022/02/24 10:14:11;;;;;;;6.77;2.23;;;;;;;4.65;53.88;96501.92;1792838;80;21049;-68
2022/02/24 10:16:59;;;;;;;10.57;5.13;;;;;;;4.57;54.07;96502.20;1793016;79;20982;-67
2022/02/24 10:19:45;;;;;;;7.83;4.00;;;;;;;4.50;54.53;96488.13;1793061;80;20990;-70
2022/02/24 10:22:20;;;;;;;9.60;5.00;;;;;;;4.45;54.87;96491.08;1791366;80;21073;-68
2022/02/24 10:25:03;;;;;;;10.33;4.50;;;;;;;4.73;56.04;96480.72;1791774;80;20983;-69
2022/02/24 10:27:34;;;;;;;10.10;4.90;;;;;;;5.06;54.20;96465.16;1792363;79;20994;-68
2022/02/24 10:30:21;;;;;;;6.53;3.30;;;;;;;5.05;54.48;96473.88;1791833;80;21581;-69
2022/02/24 10:32:52;;;;;;;4.87;2.23;;;;;;;5.24;55.19;96464.61;1793873;80;21026;-68
2022/02/24 10:35:34;;;;;;;4.93;1.70;;;;;;;5.60;54.10;96459.04;1796526;80;21034;-68
2022/02/24 10:38:06;;;;;;;7.60;2.65;;;;;;;6.03;54.04;96457.04;1797047;80;21496;-68
2022/02/24 10:40:37;;;;;;;7.13;2.47;;;;;;;6.62;50.61;96444.61;1797165;80;21049;-66
2022/02/24 10:43:29;;;;;;;5.67;1.83;;;;;;;6.62;50.61;96444.61;1796673;80;22024;-65
2022/02/24 10:46:10;;;;;;;7.73;2.33;;;;;;;7.03;48.37;96446.73;1796948;80;20978;-68
2022/02/24 10:48:51;;;;;;;6.20;2.00;;;;;;;7.65;49.85;96446.34;1796365;80;20998;-67
2022/02/24 10:51:22;;;;;;;3.23;1.80;;;;;;;8.28;47.46;96440.11;1796794;80;21519;-65
2022/02/24 10:54:04;;;;;;;8.73;2.30;;;;;;;8.48;43.55;96439.34;1796640;80;21017;-66
2022/02/24 10:56:35;;;;;;;4.07;2.20;;;;;;;8.84;44.97;96428.91;1796649;80;21069;-66
2022/02/24 10:59:03;;;;;;;5.35;2.92;;;;;;;9.15;43.37;96428.94;1796960;80;20935;-66
2022/02/24 11:01:30;;;;;;;6.03;2.10;;;;;;;9.70;41.22;96431.53;1796481;80;21070;-66
2022/02/24 11:04:04;;;;;;;5.55;2.05;;;;;;;9.97;42.36;96417.38;1796636;80;21030;-66
2022/02/24 11:06:35;;;;;;;3.92;1.90;;;;;;;10.52;42.67;96419.41;1796340;80;20998;-67
2022/02/24 11:09:05;;;;;;;5.53;2.08;;;;;;;10.81;41.33;96405.61;1795943;80;21420;-67
2022/02/24 11:11:36;;;;;;;6.97;2.15;;;;;;;11.39;39.47;96409.98;1796176;80;21055;-67
2022/02/24 11:14:06;;;;;;;4.08;2.00;;;;;;;11.59;39.00;96411.13;1796199;80;21088;-68
2022/02/24 11:16:34;;;;;;;3.58;1.72;;;;;;;11.60;38.26;96396.59;1796174;80;21047;-67
2022/02/24 11:19:01;;;;;;;9.38;3.42;;;;;;;12.05;38.38;96397.48;1796487;80;21076;-68
2022/02/24 11:21:30;;;;;;;5.10;2.17;;;;;;;12.39;39.49;96394.42;1796540;80;21033;-66
2022/02/24 11:23:58;;;;;;;4.95;2.02;;;;;;;12.87;39.17;96393.31;1796737;80;20990;-66
2022/02/24 11:26:48;;;;;;;6.85;2.08;;;;;;;13.41;40.73;96381.00;1796658;80;21036;-66
2022/02/24 11:29:49;;;;;;;5.12;1.77;;;;;;;13.65;37.66;96380.13;1784876;80;21432;-66